createdAt,value
2016-11-15T00:00:14.280Z,63.20
2016-11-15T00:01:13.183Z,63.22
2016-11-15T00:02:13.523Z,63.20
2016-11-15T00:03:14.238Z,63.22
2016-11-15T00:04:14.288Z,62.99
2016-11-15T00:05:14.042Z,62.19
2016-11-15T00:06:13.236Z,62.17
2016-11-15T00:07:14.002Z,61.93
2016-11-15T00:08:15.418Z,61.89
2016-11-15T00:09:13.429Z,61.83
2016-11-15T00:10:14.449Z,61.81
2016-11-15T00:11:13.467Z,61.83
2016-11-15T00:12:14.412Z,61.81
2016-11-15T00:13:14.286Z,62.10
2016-11-15T00:14:14.185Z,62.78
2016-11-15T00:15:13.985Z,62.99
2016-11-15T00:16:11.163Z,63.09
2016-11-15T00:17:12.581Z,63.15
2016-11-15T00:18:15.078Z,63.20
2016-11-15T00:19:14.153Z,63.23
2016-11-15T00:20:14.283Z,63.26
2016-11-15T00:21:15.335Z,63.28
2016-11-15T00:22:14.003Z,63.27
2016-11-15T00:23:13.523Z,63.28
2016-11-15T00:24:13.003Z,63.24
2016-11-15T00:25:13.172Z,63.25
2016-11-15T00:26:12.750Z,63.28
2016-11-15T00:27:14.218Z,63.24
2016-11-15T00:28:13.698Z,62.31
2016-11-15T00:29:15.216Z,62.44
2016-11-15T00:30:14.181Z,63.01
2016-11-15T00:31:17.897Z,63.17
2016-11-15T00:32:14.286Z,63.22
2016-11-15T00:33:12.620Z,63.27
2016-11-15T00:34:13.127Z,63.29
2016-11-15T00:35:12.608Z,63.29
2016-11-15T00:36:14.168Z,63.32
2016-11-15T00:37:13.267Z,63.23
2016-11-15T00:38:14.483Z,62.36
2016-11-15T00:39:13.408Z,62.13
2016-11-15T00:40:12.743Z,62.02
2016-11-15T00:41:13.134Z,61.99
2016-11-15T00:42:14.380Z,62.12
2016-11-15T00:43:13.620Z,62.95
2016-11-15T00:44:18.367Z,63.14
2016-11-15T00:45:11.648Z,63.25
2016-11-15T00:46:13.559Z,63.31
2016-11-15T00:47:10.151Z,63.35
2016-11-15T00:48:13.222Z,63.37
2016-11-15T00:49:13.708Z,63.39
2016-11-15T00:50:13.422Z,63.39
2016-11-15T00:51:11.328Z,63.41
2016-11-15T00:52:13.336Z,63.40
2016-11-15T00:53:12.993Z,63.42
2016-11-15T00:54:12.336Z,63.42
2016-11-15T00:55:14.038Z,63.41
2016-11-15T00:56:11.153Z,63.45
2016-11-15T00:57:12.595Z,63.38
2016-11-15T00:58:11.537Z,63.45
2016-11-15T00:59:13.143Z,63.43
2016-11-15T01:00:13.173Z,63.46
2016-11-15T01:01:12.894Z,63.45
2016-11-15T01:02:13.528Z,63.45
2016-11-15T01:03:13.750Z,63.43
2016-11-15T01:04:14.500Z,63.44
2016-11-15T01:05:15.109Z,63.47
2016-11-15T01:06:12.965Z,63.44
2016-11-15T01:07:12.002Z,63.47
2016-11-15T01:08:12.842Z,63.49
2016-11-15T01:09:13.365Z,63.48
2016-11-15T01:10:13.364Z,63.49
2016-11-15T01:11:13.646Z,63.46
2016-11-15T01:12:14.786Z,63.49
2016-11-15T01:13:14.079Z,63.50
2016-11-15T01:14:14.141Z,63.53
2016-11-15T01:15:13.039Z,63.52
2016-11-15T01:16:13.025Z,63.49
2016-11-15T01:17:13.504Z,63.49
2016-11-15T01:18:13.229Z,63.48
2016-11-15T01:19:12.808Z,63.52
2016-11-15T01:20:12.802Z,63.51
2016-11-15T01:21:13.848Z,63.55
2016-11-15T01:22:13.714Z,63.53
2016-11-15T01:23:11.619Z,63.55
2016-11-15T01:24:12.491Z,63.56
2016-11-15T01:25:12.814Z,63.58
2016-11-15T01:26:13.983Z,63.56
2016-11-15T01:27:13.797Z,63.57
2016-11-15T01:28:13.519Z,63.56
2016-11-15T01:29:13.455Z,63.60
2016-11-15T01:30:12.927Z,63.59
2016-11-15T01:31:12.236Z,63.60
2016-11-15T01:32:13.250Z,63.62
2016-11-15T01:33:12.784Z,63.60
2016-11-15T01:34:14.260Z,63.60
2016-11-15T01:35:14.213Z,63.59
2016-11-15T01:36:11.036Z,63.58
2016-11-15T01:37:14.733Z,62.56
2016-11-15T01:38:13.470Z,62.76
2016-11-15T01:39:15.029Z,63.30
2016-11-15T01:40:12.184Z,63.47
2016-11-15T01:41:13.073Z,63.51
2016-11-15T01:42:12.142Z,63.51
2016-11-15T01:43:14.223Z,63.57
2016-11-15T01:44:12.259Z,63.58
2016-11-15T01:45:14.744Z,63.57
2016-11-15T01:46:13.304Z,63.61
2016-11-15T01:47:13.435Z,63.62
2016-11-15T01:48:12.432Z,63.60
2016-11-15T01:49:13.660Z,63.65
2016-11-15T01:50:13.997Z,63.65
2016-11-15T01:51:12.721Z,63.63
2016-11-15T01:52:14.347Z,63.71
2016-11-15T01:53:12.313Z,62.66
2016-11-15T01:54:14.239Z,62.42
2016-11-15T01:55:12.830Z,62.28
2016-11-15T01:56:13.195Z,62.24
2016-11-15T01:57:18.416Z,62.24
2016-11-15T01:58:13.010Z,62.18
2016-11-15T01:59:12.764Z,62.19
2016-11-15T02:00:13.558Z,62.16
2016-11-15T02:01:12.663Z,62.15
2016-11-15T02:02:14.226Z,62.10
2016-11-15T02:03:12.936Z,62.16
2016-11-15T02:04:12.463Z,62.16
2016-11-15T02:05:14.431Z,62.16
2016-11-15T02:06:14.481Z,62.14
2016-11-15T02:07:10.154Z,62.20
2016-11-15T02:08:12.673Z,62.16
2016-11-15T02:09:13.946Z,62.12
2016-11-15T02:10:12.586Z,62.14
2016-11-15T02:11:13.654Z,62.12
2016-11-15T02:12:13.156Z,62.12
2016-11-15T02:13:14.217Z,62.15
2016-11-15T02:14:13.790Z,62.36
2016-11-15T02:15:13.593Z,63.21
2016-11-15T02:16:12.457Z,63.41
2016-11-15T02:17:12.683Z,63.49
2016-11-15T02:18:13.975Z,63.58
2016-11-15T02:19:11.834Z,63.57
2016-11-15T02:20:13.983Z,63.64
2016-11-15T02:21:11.963Z,63.63
2016-11-15T02:22:12.926Z,63.70
2016-11-15T02:23:12.634Z,63.73
2016-11-15T02:24:12.573Z,63.75
2016-11-15T02:25:13.547Z,63.80
2016-11-15T02:26:13.260Z,63.72
2016-11-15T02:27:13.068Z,63.78
2016-11-15T02:28:13.471Z,64.25
2016-11-15T02:29:14.153Z,64.10
2016-11-15T02:30:13.136Z,64.33
2016-11-15T02:31:13.103Z,64.19
2016-11-15T02:32:12.823Z,63.98
2016-11-15T02:33:15.712Z,63.87
2016-11-15T02:34:13.326Z,63.98
2016-11-15T02:35:12.831Z,64.02
2016-11-15T02:36:14.502Z,64.06
2016-11-15T02:37:12.530Z,64.10
2016-11-15T02:38:13.587Z,64.10
2016-11-15T02:39:13.195Z,64.18
2016-11-15T02:40:13.170Z,64.20
2016-11-15T02:41:12.573Z,64.22
2016-11-15T02:42:13.186Z,64.23
2016-11-15T02:43:13.239Z,64.22
2016-11-15T02:44:13.710Z,64.14
2016-11-15T02:45:13.591Z,64.19
2016-11-15T02:46:11.675Z,64.18
2016-11-15T02:47:12.689Z,63.22
2016-11-15T02:48:12.493Z,62.92
2016-11-15T02:49:12.812Z,63.94
2016-11-15T02:50:14.212Z,64.12
2016-11-15T02:51:14.662Z,64.16
2016-11-15T02:52:13.147Z,64.07
2016-11-15T02:53:13.790Z,64.09
2016-11-15T02:54:13.898Z,64.25
2016-11-15T02:55:13.813Z,64.24
2016-11-15T02:56:15.187Z,64.25
2016-11-15T02:57:12.417Z,64.24
2016-11-15T02:58:12.260Z,64.19
2016-11-15T02:59:13.612Z,64.28
2016-11-15T03:00:12.606Z,64.19
2016-11-15T03:01:13.595Z,64.28
2016-11-15T03:02:12.573Z,64.32
2016-11-15T03:03:12.994Z,64.28
2016-11-15T03:04:12.583Z,64.24
2016-11-15T03:05:10.509Z,64.32
2016-11-15T03:06:13.194Z,64.20
2016-11-15T03:07:12.884Z,64.21
2016-11-15T03:08:12.794Z,64.21
2016-11-15T03:09:13.409Z,64.14
2016-11-15T03:10:13.309Z,64.23
2016-11-15T03:11:12.182Z,64.26
2016-11-15T03:12:13.196Z,64.16
2016-11-15T03:13:13.414Z,64.30
2016-11-15T03:14:12.967Z,64.27
2016-11-15T03:15:12.324Z,64.17
2016-11-15T03:16:13.328Z,64.24
2016-11-15T03:17:13.956Z,64.23
2016-11-15T03:18:12.683Z,64.07
2016-11-15T03:19:13.327Z,64.11
2016-11-15T03:20:13.303Z,64.21
2016-11-15T03:21:15.243Z,64.18
2016-11-15T03:22:12.670Z,64.23
2016-11-15T03:23:13.143Z,64.20
2016-11-15T03:24:13.518Z,64.15
2016-11-15T03:25:13.274Z,64.25
2016-11-15T03:26:12.112Z,64.08
2016-11-15T03:27:12.461Z,64.13
2016-11-15T03:28:13.745Z,64.08
2016-11-15T03:29:12.557Z,64.11
2016-11-15T03:30:14.683Z,64.05
2016-11-15T03:31:12.737Z,64.09
2016-11-15T03:32:13.442Z,64.02
2016-11-15T03:33:12.447Z,64.08
2016-11-15T03:34:12.784Z,64.08
2016-11-15T03:35:13.507Z,64.07
2016-11-15T03:36:13.302Z,64.04
2016-11-15T03:37:12.196Z,64.07
2016-11-15T03:38:12.941Z,64.02
2016-11-15T03:39:12.701Z,64.06
2016-11-15T03:40:12.786Z,64.09
2016-11-15T03:41:13.449Z,64.10
2016-11-15T03:42:13.267Z,64.10
2016-11-15T03:43:13.258Z,64.15
2016-11-15T03:44:13.918Z,64.16
2016-11-15T03:45:14.635Z,64.16
2016-11-15T03:46:13.314Z,64.16
2016-11-15T03:47:13.998Z,64.16
2016-11-15T03:48:13.359Z,64.15
2016-11-15T03:49:12.349Z,64.16
2016-11-15T03:50:13.016Z,64.15
2016-11-15T03:51:12.384Z,64.20
2016-11-15T03:52:12.251Z,64.16
2016-11-15T03:53:12.179Z,64.14
2016-11-15T03:54:12.835Z,64.10
2016-11-15T03:55:11.724Z,64.18
2016-11-15T03:56:12.783Z,64.17
2016-11-15T03:57:13.495Z,64.17
2016-11-15T03:58:12.436Z,64.21
2016-11-15T03:59:12.413Z,64.17
2016-11-15T04:00:12.331Z,64.16
2016-11-15T04:01:12.777Z,64.18
2016-11-15T04:02:12.841Z,64.23
2016-11-15T04:03:12.842Z,64.18
2016-11-15T04:04:12.620Z,64.22
2016-11-15T04:05:13.292Z,64.27
2016-11-15T04:06:12.671Z,64.30
2016-11-15T04:07:13.224Z,64.33
2016-11-15T04:08:13.682Z,64.33
2016-11-15T04:09:12.526Z,64.36
2016-11-15T04:10:10.852Z,64.36
2016-11-15T04:11:13.746Z,63.34
2016-11-15T04:12:12.610Z,64.09
2016-11-15T04:13:12.431Z,64.23
2016-11-15T04:14:11.425Z,64.23
2016-11-15T04:15:12.667Z,64.25
2016-11-15T04:16:12.649Z,64.38
2016-11-15T04:17:12.991Z,64.58
2016-11-15T04:18:17.578Z,64.69
2016-11-15T04:19:13.280Z,64.82
2016-11-15T04:20:12.564Z,64.60
2016-11-15T04:21:12.351Z,64.64
2016-11-15T04:22:12.255Z,64.62
2016-11-15T04:23:12.900Z,64.69
2016-11-15T04:24:14.551Z,64.61
2016-11-15T04:25:12.817Z,64.56
2016-11-15T04:26:12.670Z,64.58
2016-11-15T04:27:12.870Z,64.55
2016-11-15T04:28:13.320Z,64.53
2016-11-15T04:29:12.865Z,64.45
2016-11-15T04:30:12.813Z,64.43
2016-11-15T04:31:13.236Z,64.40
2016-11-15T04:32:12.171Z,64.38
2016-11-15T04:33:12.254Z,64.36
2016-11-15T04:34:14.243Z,64.38
2016-11-15T04:35:12.787Z,64.40
2016-11-15T04:36:14.234Z,64.40
2016-11-15T04:37:12.142Z,64.40
2016-11-15T04:38:12.544Z,64.40
2016-11-15T04:39:12.994Z,64.37
2016-11-15T04:40:13.544Z,64.41
2016-11-15T04:41:13.130Z,64.44
2016-11-15T04:42:12.450Z,64.44
2016-11-15T04:43:13.191Z,64.33
2016-11-15T04:44:12.160Z,64.33
2016-11-15T04:45:12.530Z,64.32
2016-11-15T04:46:13.818Z,64.32
2016-11-15T04:47:13.684Z,64.32
2016-11-15T04:48:13.563Z,64.39
2016-11-15T04:49:12.659Z,64.33
2016-11-15T04:50:13.137Z,64.39
2016-11-15T04:51:14.571Z,64.34
2016-11-15T04:52:12.485Z,64.35
2016-11-15T04:53:13.551Z,64.31
2016-11-15T04:54:11.401Z,64.28
2016-11-15T04:55:13.310Z,63.49
2016-11-15T04:56:12.653Z,64.11
2016-11-15T04:57:12.915Z,64.16
2016-11-15T04:58:13.395Z,64.17
2016-11-15T04:59:12.390Z,64.29
2016-11-15T05:00:12.873Z,64.30
2016-11-15T05:01:13.035Z,64.29
2016-11-15T05:02:12.684Z,64.34
2016-11-15T05:03:12.789Z,64.30
2016-11-15T05:04:13.452Z,64.30
2016-11-15T05:05:11.433Z,64.32
2016-11-15T05:06:12.072Z,64.28
2016-11-15T05:07:12.658Z,64.20
2016-11-15T05:08:12.992Z,64.22
2016-11-15T05:09:12.563Z,64.23
2016-11-15T05:10:12.582Z,64.22
2016-11-15T05:11:12.631Z,64.26
2016-11-15T05:12:18.527Z,64.26
2016-11-15T05:13:12.503Z,64.23
2016-11-15T05:14:12.965Z,64.26
2016-11-15T05:15:12.862Z,64.26
2016-11-15T05:16:12.770Z,64.27
2016-11-15T05:17:13.569Z,64.27
2016-11-15T05:18:13.291Z,64.29
2016-11-15T05:19:12.725Z,64.29
2016-11-15T05:20:13.001Z,64.24
2016-11-15T05:21:13.682Z,64.29
2016-11-15T05:22:18.697Z,64.26
2016-11-15T05:23:12.784Z,64.29
2016-11-15T05:24:13.205Z,64.27
2016-11-15T05:25:20.196Z,64.29
2016-11-15T05:26:16.266Z,64.30
2016-11-15T05:27:16.424Z,64.07
2016-11-15T05:28:13.063Z,63.28
2016-11-15T05:29:12.438Z,63.07
2016-11-15T05:30:11.328Z,62.96
2016-11-15T05:31:14.252Z,63.89
2016-11-15T05:32:12.777Z,64.06
2016-11-15T05:33:14.632Z,64.16
2016-11-15T05:34:12.592Z,64.17
2016-11-15T05:35:13.698Z,64.20
2016-11-15T05:36:13.495Z,64.21
2016-11-15T05:37:13.546Z,64.25
2016-11-15T05:38:12.645Z,64.27
2016-11-15T05:39:13.183Z,64.25
2016-11-15T05:40:11.088Z,64.28
2016-11-15T05:41:12.782Z,64.31
2016-11-15T05:42:13.545Z,64.31
2016-11-15T05:43:13.291Z,64.30
2016-11-15T05:44:12.841Z,64.28
2016-11-15T05:45:13.471Z,64.30
2016-11-15T05:46:13.128Z,64.33
2016-11-15T05:47:12.893Z,64.32
2016-11-15T05:48:12.918Z,64.35
2016-11-15T05:49:14.247Z,64.34
2016-11-15T05:50:13.306Z,64.32
2016-11-15T05:51:12.327Z,64.33
2016-11-15T05:52:13.012Z,64.30
2016-11-15T05:53:12.546Z,64.29
2016-11-15T05:54:12.502Z,63.32
2016-11-15T05:55:13.049Z,63.60
2016-11-15T05:56:12.634Z,64.11
2016-11-15T05:57:13.267Z,64.57
2016-11-15T05:58:10.484Z,64.64
2016-11-15T05:59:12.474Z,63.65
2016-11-15T06:00:13.921Z,63.49
2016-11-15T06:01:12.952Z,63.41
2016-11-15T06:02:11.841Z,63.35
2016-11-15T06:03:14.473Z,63.31
2016-11-15T06:04:12.470Z,63.36
2016-11-15T06:05:12.426Z,63.37
2016-11-15T06:06:12.518Z,63.36
2016-11-15T06:07:13.039Z,63.33
2016-11-15T06:08:13.308Z,63.28
2016-11-15T06:09:12.408Z,63.24
2016-11-15T06:10:12.964Z,63.24
2016-11-15T06:11:12.523Z,63.23
2016-11-15T06:12:14.148Z,63.19
2016-11-15T06:13:12.213Z,63.20
2016-11-15T06:14:13.521Z,63.15
2016-11-15T06:15:12.438Z,64.17
2016-11-15T06:16:13.212Z,64.40
2016-11-15T06:17:12.936Z,64.52
2016-11-15T06:18:12.602Z,64.50
2016-11-15T06:19:13.935Z,64.63
2016-11-15T06:20:11.899Z,64.57
2016-11-15T06:21:10.858Z,64.58
2016-11-15T06:22:13.417Z,64.59
2016-11-15T06:23:13.477Z,64.60
2016-11-15T06:24:14.975Z,64.60
2016-11-15T06:25:11.932Z,64.59
2016-11-15T06:26:12.700Z,64.57
2016-11-15T06:27:13.535Z,64.59
2016-11-15T06:28:11.554Z,64.59
2016-11-15T06:29:14.073Z,64.58
2016-11-15T06:30:12.819Z,64.58
2016-11-15T06:31:13.405Z,64.58
2016-11-15T06:32:12.954Z,64.56
2016-11-15T06:33:12.707Z,64.54
2016-11-15T06:34:12.618Z,64.54
2016-11-15T06:35:15.633Z,64.53
2016-11-15T06:36:10.975Z,64.49
2016-11-15T06:37:13.518Z,64.36
2016-11-15T06:38:12.983Z,64.21
2016-11-15T06:39:12.619Z,63.40
2016-11-15T06:40:13.084Z,63.11
2016-11-15T06:41:12.043Z,63.27
2016-11-15T06:42:12.627Z,63.47
2016-11-15T06:43:14.347Z,63.62
2016-11-15T06:44:11.267Z,64.04
2016-11-15T06:45:12.926Z,63.97
2016-11-15T06:46:13.010Z,65.32
2016-11-15T06:47:12.006Z,65.94
2016-11-15T06:48:12.803Z,66.27
2016-11-15T06:49:13.350Z,66.02
2016-11-15T06:50:13.168Z,65.77
2016-11-15T06:51:12.246Z,66.17
2016-11-15T06:52:12.382Z,66.39
2016-11-15T06:53:12.970Z,66.48
2016-11-15T06:54:11.789Z,66.50
2016-11-15T06:55:12.617Z,66.51
2016-11-15T06:56:12.616Z,66.38
2016-11-15T06:57:13.178Z,65.97
2016-11-15T06:58:12.815Z,66.40
2016-11-15T06:59:19.989Z,67.06
2016-11-15T07:00:11.943Z,67.39
2016-11-15T07:01:11.906Z,68.46
2016-11-15T07:02:11.798Z,68.16
2016-11-15T07:03:12.694Z,67.04
2016-11-15T07:04:12.567Z,66.92
2016-11-15T07:05:14.149Z,67.57
2016-11-15T07:06:12.341Z,67.60
2016-11-15T07:07:12.412Z,67.64
2016-11-15T07:08:12.944Z,67.56
2016-11-15T07:09:10.827Z,68.66
2016-11-15T07:10:12.509Z,68.81
2016-11-15T07:11:12.619Z,69.02
2016-11-15T07:12:12.585Z,68.94
2016-11-15T07:13:13.226Z,68.86
2016-11-15T07:14:12.795Z,68.48
2016-11-15T07:15:13.228Z,68.25
2016-11-15T07:16:12.172Z,68.26
2016-11-15T07:17:13.405Z,68.58
2016-11-15T07:18:12.494Z,68.63
2016-11-15T07:19:14.310Z,68.71
2016-11-15T07:20:11.206Z,68.45
2016-11-15T07:21:12.182Z,67.57
2016-11-15T07:22:12.133Z,67.03
2016-11-15T07:23:12.221Z,66.93
2016-11-15T07:24:12.972Z,67.48
2016-11-15T07:25:11.648Z,67.47
2016-11-15T07:26:12.478Z,67.15
2016-11-15T07:27:12.438Z,67.25
2016-11-15T07:28:13.273Z,68.19
2016-11-15T07:29:12.953Z,68.39
2016-11-15T07:30:10.913Z,68.45
2016-11-15T07:31:12.914Z,68.61
2016-11-15T07:32:12.862Z,68.31
2016-11-15T07:33:12.630Z,68.24
2016-11-15T07:34:14.492Z,67.90
2016-11-15T07:35:14.233Z,68.14
2016-11-15T07:36:12.247Z,68.08
2016-11-15T07:37:13.842Z,68.17
2016-11-15T07:38:12.836Z,68.17
2016-11-15T07:39:16.880Z,68.23
2016-11-15T07:40:13.417Z,68.23
2016-11-15T07:41:12.972Z,68.04
2016-11-15T07:42:13.432Z,68.07
2016-11-15T07:43:13.959Z,68.16
2016-11-15T07:44:12.437Z,67.99
2016-11-15T07:45:18.950Z,67.93
2016-11-15T07:46:12.654Z,67.60
2016-11-15T07:47:14.417Z,67.88
2016-11-15T07:48:12.272Z,67.95
2016-11-15T07:49:13.030Z,66.82
2016-11-15T07:50:13.065Z,67.69
2016-11-15T07:51:12.710Z,67.81
2016-11-15T07:52:13.131Z,67.78
2016-11-15T07:53:12.761Z,64.86
2016-11-15T07:54:10.379Z,49.11
2016-11-15T07:55:12.812Z,46.81
2016-11-15T07:56:11.701Z,45.02
2016-11-15T07:57:13.685Z,44.51
2016-11-15T07:58:13.258Z,43.82
2016-11-15T07:59:12.801Z,44.70
2016-11-15T08:00:13.351Z,44.92
2016-11-15T08:01:12.993Z,44.65
2016-11-15T08:02:12.661Z,44.41
2016-11-15T08:03:12.667Z,46.21
2016-11-15T08:04:13.578Z,46.24
2016-11-15T08:05:12.452Z,46.54
2016-11-15T08:06:13.642Z,47.57
2016-11-15T08:07:12.545Z,48.08
2016-11-15T08:08:12.905Z,48.77
2016-11-15T08:09:12.870Z,48.70
2016-11-15T08:10:14.530Z,48.99
2016-11-15T08:11:12.535Z,49.14
2016-11-15T08:12:14.337Z,49.32
2016-11-15T08:13:12.359Z,49.76
2016-11-15T08:14:12.370Z,50.21
2016-11-15T08:15:13.323Z,50.42
2016-11-15T08:16:12.295Z,50.77
2016-11-15T08:17:13.606Z,51.32
2016-11-15T08:18:13.226Z,51.56
2016-11-15T08:19:13.368Z,51.65
2016-11-15T08:20:13.009Z,52.04
2016-11-15T08:21:12.628Z,52.11
2016-11-15T08:22:13.306Z,52.32
2016-11-15T08:23:12.888Z,52.30
2016-11-15T08:24:13.489Z,51.47
2016-11-15T08:25:12.488Z,51.77
2016-11-15T08:26:11.602Z,52.65
2016-11-15T08:27:13.022Z,52.00
2016-11-15T08:28:12.537Z,52.77
2016-11-15T08:29:12.441Z,53.29
2016-11-15T08:30:12.347Z,53.56
2016-11-15T08:31:12.340Z,53.76
2016-11-15T08:32:13.406Z,53.69
2016-11-15T08:33:13.212Z,53.64
2016-11-15T08:34:12.911Z,53.84
2016-11-15T08:35:13.360Z,54.08
2016-11-15T08:36:12.393Z,54.43
2016-11-15T08:37:10.489Z,54.63
2016-11-15T08:38:13.184Z,54.77
2016-11-15T08:39:12.077Z,54.91
2016-11-15T08:40:12.195Z,54.99
2016-11-15T08:41:12.862Z,55.12
2016-11-15T08:42:15.160Z,55.20
2016-11-15T08:43:13.180Z,55.17
2016-11-15T08:44:12.070Z,55.28
2016-11-15T08:45:12.134Z,55.32
2016-11-15T08:46:13.558Z,55.19
2016-11-15T08:47:13.364Z,55.50
2016-11-15T08:48:12.366Z,55.40
2016-11-15T08:49:12.290Z,55.64
2016-11-15T08:50:12.631Z,55.51
2016-11-15T08:51:14.243Z,55.41
2016-11-15T08:52:12.288Z,55.52
2016-11-15T08:53:12.825Z,55.63
2016-11-15T08:54:13.046Z,55.84
2016-11-15T08:55:10.891Z,56.08
2016-11-15T08:56:12.919Z,55.98
2016-11-15T08:57:14.522Z,56.01
2016-11-15T08:58:12.549Z,56.01
2016-11-15T08:59:13.304Z,56.03
2016-11-15T09:00:12.249Z,56.04
2016-11-15T09:01:12.154Z,56.56
2016-11-15T09:02:12.661Z,56.46
2016-11-15T09:03:12.589Z,56.55
2016-11-15T09:04:12.563Z,56.60
2016-11-15T09:05:13.083Z,56.74
2016-11-15T09:06:12.116Z,56.79
2016-11-15T09:07:13.081Z,56.93
2016-11-15T09:08:12.801Z,57.07
2016-11-15T09:09:13.248Z,57.38
2016-11-15T09:10:12.319Z,57.15
2016-11-15T09:11:12.851Z,57.20
2016-11-15T09:12:11.638Z,57.30
2016-11-15T09:13:13.250Z,56.57
2016-11-15T09:14:13.137Z,56.48
2016-11-15T09:15:12.233Z,56.49
2016-11-15T09:16:13.867Z,56.55
2016-11-15T09:17:13.654Z,56.37
2016-11-15T09:18:12.528Z,56.56
2016-11-15T09:19:13.267Z,56.66
2016-11-15T09:20:12.866Z,56.59
2016-11-15T09:21:12.747Z,57.05
2016-11-15T09:22:13.148Z,57.74
2016-11-15T09:23:12.091Z,58.03
2016-11-15T09:24:12.891Z,58.15
2016-11-15T09:25:12.052Z,58.18
2016-11-15T09:26:11.936Z,57.10
2016-11-15T09:27:11.727Z,57.17
2016-11-15T09:28:14.190Z,57.06
2016-11-15T09:29:12.115Z,57.31
2016-11-15T09:30:12.820Z,58.11
2016-11-15T09:31:14.339Z,58.29
2016-11-15T09:32:12.743Z,58.61
2016-11-15T09:33:13.342Z,58.62
2016-11-15T09:34:12.375Z,58.59
2016-11-15T09:35:12.442Z,58.77
2016-11-15T09:36:12.544Z,58.79
2016-11-15T09:37:14.217Z,58.77
2016-11-15T09:38:12.734Z,58.86
2016-11-15T09:39:12.668Z,58.79
2016-11-15T09:40:12.624Z,58.79
2016-11-15T09:41:12.757Z,58.81
2016-11-15T09:42:10.976Z,58.94
2016-11-15T09:43:12.920Z,59.02
2016-11-15T09:44:12.745Z,59.00
2016-11-15T09:45:13.030Z,58.99
2016-11-15T09:46:12.528Z,59.14
2016-11-15T09:47:14.232Z,59.17
2016-11-15T09:48:12.171Z,59.24
2016-11-15T09:49:12.189Z,59.22
2016-11-15T09:50:13.108Z,59.27
2016-11-15T09:51:19.457Z,59.49
2016-11-15T09:52:13.179Z,59.69
2016-11-15T09:53:12.635Z,59.55
2016-11-15T09:54:12.573Z,59.51
2016-11-15T09:55:12.816Z,59.48
2016-11-15T09:56:18.812Z,59.53
2016-11-15T09:57:12.071Z,59.63
2016-11-15T09:58:12.647Z,59.69
2016-11-15T09:59:13.198Z,59.66
2016-11-15T10:00:12.783Z,59.75
2016-11-15T10:01:12.799Z,59.75
2016-11-15T10:02:12.791Z,59.83
2016-11-15T10:03:12.877Z,59.88
2016-11-15T10:04:12.751Z,59.69
2016-11-15T10:05:14.525Z,59.75
2016-11-15T10:06:12.662Z,59.82
2016-11-15T10:07:12.710Z,60.01
2016-11-15T10:08:14.600Z,59.91
2016-11-15T10:09:11.366Z,60.07
2016-11-15T10:10:11.445Z,59.12
2016-11-15T10:11:12.799Z,59.20
2016-11-15T10:12:14.373Z,59.75
2016-11-15T10:13:11.278Z,59.97
2016-11-15T10:14:12.245Z,60.07
2016-11-15T10:15:12.863Z,60.04
2016-11-15T10:16:12.642Z,60.14
2016-11-15T10:17:11.469Z,60.15
2016-11-15T10:18:12.449Z,59.23
2016-11-15T10:19:11.365Z,59.02
2016-11-15T10:20:12.859Z,59.18
2016-11-15T10:21:12.930Z,59.84
2016-11-15T10:22:11.028Z,60.04
2016-11-15T10:23:11.915Z,60.11
2016-11-15T10:24:11.746Z,60.18
2016-11-15T10:25:13.503Z,60.21
2016-11-15T10:26:12.887Z,60.20
2016-11-15T10:27:15.591Z,60.22
2016-11-15T10:28:15.145Z,60.26
2016-11-15T10:29:12.981Z,60.26
2016-11-15T10:30:12.568Z,60.25
2016-11-15T10:31:13.171Z,60.27
2016-11-15T10:32:13.595Z,60.27
2016-11-15T10:33:13.051Z,60.27
2016-11-15T10:34:12.086Z,60.28
2016-11-15T10:35:10.942Z,60.31
2016-11-15T10:36:12.716Z,59.33
2016-11-15T10:37:12.581Z,59.14
2016-11-15T10:38:12.610Z,59.07
2016-11-15T10:39:12.926Z,59.05
2016-11-15T10:40:11.115Z,59.94
2016-11-15T10:41:13.543Z,60.14
2016-11-15T10:42:13.050Z,60.23
2016-11-15T10:43:13.057Z,60.25
2016-11-15T10:44:11.988Z,60.30
2016-11-15T10:45:12.895Z,60.29
2016-11-15T10:46:12.694Z,60.32
2016-11-15T10:47:13.340Z,60.36
2016-11-15T10:48:13.898Z,60.39
2016-11-15T10:49:12.796Z,60.39
2016-11-15T10:50:14.495Z,60.39
2016-11-15T10:51:12.567Z,60.41
2016-11-15T10:52:12.484Z,60.40
2016-11-15T10:53:12.870Z,60.43
2016-11-15T10:54:12.839Z,60.42
2016-11-15T10:55:14.379Z,60.45
2016-11-15T10:56:12.784Z,60.48
2016-11-15T10:57:12.634Z,60.50
2016-11-15T10:58:12.468Z,60.48
2016-11-15T10:59:13.113Z,60.46
2016-11-15T11:00:12.869Z,60.49
2016-11-15T11:01:12.874Z,60.51
2016-11-15T11:02:13.601Z,60.51
2016-11-15T11:03:13.411Z,60.48
2016-11-15T11:04:13.042Z,60.50
2016-11-15T11:05:12.098Z,60.51
2016-11-15T11:06:12.376Z,60.53
2016-11-15T11:07:13.129Z,60.50
2016-11-15T11:08:12.643Z,60.51
2016-11-15T11:09:12.992Z,60.52
2016-11-15T11:10:12.036Z,60.53
2016-11-15T11:11:12.070Z,60.55
2016-11-15T11:12:11.298Z,60.43
2016-11-15T11:13:12.706Z,59.60
2016-11-15T11:14:13.491Z,59.70
2016-11-15T11:15:13.019Z,60.27
2016-11-15T11:16:12.773Z,60.39
2016-11-15T11:17:13.503Z,60.47
2016-11-15T11:18:14.150Z,60.50
2016-11-15T11:19:12.029Z,60.55
2016-11-15T11:20:12.347Z,60.54
2016-11-15T11:21:12.790Z,60.56
2016-11-15T11:22:12.754Z,60.57
2016-11-15T11:23:13.458Z,60.57
2016-11-15T11:24:12.519Z,60.59
2016-11-15T11:25:13.149Z,60.56
2016-11-15T11:26:12.181Z,60.57
2016-11-15T11:27:13.685Z,60.60
2016-11-15T11:28:12.700Z,60.62
2016-11-15T11:29:16.301Z,60.62
2016-11-15T11:30:19.030Z,60.62
2016-11-15T11:31:12.029Z,60.63
2016-11-15T11:32:13.609Z,60.65
2016-11-15T11:33:13.240Z,60.66
2016-11-15T11:34:12.274Z,60.65
2016-11-15T11:35:12.229Z,60.65
2016-11-15T11:36:13.014Z,60.65
2016-11-15T11:37:11.962Z,60.64
2016-11-15T11:38:12.670Z,60.65
2016-11-15T11:39:13.236Z,60.67
2016-11-15T11:40:13.817Z,60.69
2016-11-15T11:41:13.760Z,60.68
2016-11-15T11:42:13.412Z,60.67
2016-11-15T11:43:14.300Z,60.64
2016-11-15T11:44:13.105Z,60.65
2016-11-15T11:45:13.828Z,60.65
2016-11-15T11:46:13.400Z,60.65
2016-11-15T11:47:14.351Z,60.67
2016-11-15T11:48:12.410Z,60.67
2016-11-15T11:49:13.086Z,60.69
2016-11-15T11:50:12.515Z,60.69
2016-11-15T11:51:12.507Z,60.71
2016-11-15T11:52:13.124Z,60.70
2016-11-15T11:53:12.495Z,60.70
2016-11-15T11:54:12.446Z,60.71
2016-11-15T11:55:12.856Z,60.72
2016-11-15T11:56:13.390Z,60.72
2016-11-15T11:57:13.825Z,60.77
2016-11-15T11:58:12.820Z,60.76
2016-11-15T11:59:14.317Z,60.76
2016-11-15T12:00:12.944Z,60.74
2016-11-15T12:01:11.840Z,60.77
2016-11-15T12:02:11.584Z,60.74
2016-11-15T12:03:14.214Z,59.86
2016-11-15T12:04:12.949Z,60.57
2016-11-15T12:05:12.096Z,60.68
2016-11-15T12:06:13.674Z,60.76
2016-11-15T12:07:12.640Z,60.79
2016-11-15T12:08:12.602Z,60.79
2016-11-15T12:09:12.544Z,60.81
2016-11-15T12:10:14.276Z,60.83
2016-11-15T12:11:10.504Z,60.86
2016-11-15T12:12:12.390Z,60.86
2016-11-15T12:13:13.998Z,60.87
2016-11-15T12:14:12.362Z,60.86
2016-11-15T12:15:12.456Z,60.86
2016-11-15T12:16:12.485Z,60.87
2016-11-15T12:17:12.538Z,60.91
2016-11-15T12:18:13.051Z,60.92
2016-11-15T12:19:12.150Z,60.91
2016-11-15T12:20:12.706Z,60.92
2016-11-15T12:21:12.587Z,60.92
2016-11-15T12:22:13.041Z,60.93
2016-11-15T12:23:12.404Z,60.96
2016-11-15T12:24:12.159Z,60.96
2016-11-15T12:25:12.178Z,60.97
2016-11-15T12:26:12.214Z,60.97
2016-11-15T12:27:12.216Z,60.98
2016-11-15T12:28:12.776Z,61.00
2016-11-15T12:29:12.695Z,61.02
2016-11-15T12:30:11.658Z,61.01
2016-11-15T12:31:13.135Z,61.01
2016-11-15T12:32:12.899Z,61.03
2016-11-15T12:33:12.866Z,61.01
2016-11-15T12:34:12.741Z,61.00
2016-11-15T12:35:12.538Z,61.01
2016-11-15T12:36:13.387Z,61.00
2016-11-15T12:37:12.435Z,60.98
2016-11-15T12:38:13.186Z,61.01
2016-11-15T12:39:18.146Z,60.96
2016-11-15T12:40:12.639Z,60.99
2016-11-15T12:41:13.123Z,61.00
2016-11-15T12:42:12.087Z,60.99
2016-11-15T12:43:12.014Z,60.99
2016-11-15T12:44:18.044Z,60.98
2016-11-15T12:45:12.615Z,60.98
2016-11-15T12:46:13.920Z,60.98
2016-11-15T12:47:11.813Z,60.99
2016-11-15T12:48:12.823Z,60.98
2016-11-15T12:49:13.233Z,61.00
2016-11-15T12:50:12.854Z,61.05
2016-11-15T12:51:13.473Z,61.04
2016-11-15T12:52:13.332Z,61.04